sensor_id;sensor_type;location;lat;lon;timestamp;pressure;altitude;pressure_sealevel;temperature
70389;BMP280;58659;49.050;8.530;2022-12-18T00:02:19;100981.69;;;-7.92
70389;BMP280;58659;49.050;8.530;2022-12-18T00:04:44;100989.56;;;-7.87
70389;BMP280;58659;49.050;8.530;2022-12-18T00:07:10;100987.75;;;-7.93
70389;BMP280;58659;49.050;8.530;2022-12-18T00:09:35;100998.47;;;-7.91
70389;BMP280;58659;49.050;8.530;2022-12-18T00:12:00;100999.84;;;-7.89
70389;BMP280;58659;49.050;8.530;2022-12-18T00:14:26;101000.03;;;-7.90
70389;BMP280;58659;49.050;8.530;2022-12-18T00:16:51;100990.28;;;-7.93
70389;BMP280;58659;49.050;8.530;2022-12-18T00:19:16;100995.94;;;-7.91
70389;BMP280;58659;49.050;8.530;2022-12-18T00:21:42;100989.09;;;-7.91
70389;BMP280;58659;49.050;8.530;2022-12-18T00:24:09;100996.53;;;-7.89
70389;BMP280;58659;49.050;8.530;2022-12-18T00:26:36;100992.22;;;-7.95
70389;BMP280;58659;49.050;8.530;2022-12-18T00:29:04;100995.91;;;-7.98
70389;BMP280;58659;49.050;8.530;2022-12-18T00:31:30;100994.94;;;-7.97
70389;BMP280;58659;49.050;8.530;2022-12-18T00:33:56;100998.81;;;-8.01
70389;BMP280;58659;49.050;8.530;2022-12-18T00:36:28;101010.34;;;-7.98
70389;BMP280;58659;49.050;8.530;2022-12-18T00:38:55;101014.44;;;-7.97
70389;BMP280;58659;49.050;8.530;2022-12-18T00:41:21;101012.88;;;-7.98
70389;BMP280;58659;49.050;8.530;2022-12-18T00:44:06;101009.75;;;-8.00
70389;BMP280;58659;49.050;8.530;2022-12-18T00:46:32;101007.81;;;-7.98
70389;BMP280;58659;49.050;8.530;2022-12-18T00:48:58;100997.66;;;-7.98
70389;BMP280;58659;49.050;8.530;2022-12-18T00:51:24;100996.09;;;-7.99
70389;BMP280;58659;49.050;8.530;2022-12-18T00:53:49;100997.28;;;-7.95
70389;BMP280;58659;49.050;8.530;2022-12-18T00:56:15;101002.19;;;-7.94
70389;BMP280;58659;49.050;8.530;2022-12-18T00:58:40;101011.34;;;-7.93
70389;BMP280;58659;49.050;8.530;2022-12-18T01:01:06;101012.13;;;-7.92
70389;BMP280;58659;49.050;8.530;2022-12-18T01:03:31;101007.03;;;-7.92
70389;BMP280;58659;49.050;8.530;2022-12-18T01:05:56;100989.69;;;-7.95
70389;BMP280;58659;49.050;8.530;2022-12-18T01:08:22;100992.22;;;-7.95
70389;BMP280;58659;49.050;8.530;2022-12-18T01:10:47;101001.41;;;-7.94
70389;BMP280;58659;49.050;8.530;2022-12-18T01:13:13;100997.25;;;-8.02
70389;BMP280;58659;49.050;8.530;2022-12-18T01:15:38;101007.56;;;-8.04
70389;BMP280;58659;49.050;8.530;2022-12-18T01:18:03;100997.25;;;-8.02
70389;BMP280;58659;49.050;8.530;2022-12-18T01:20:29;100997.84;;;-8.00
70389;BMP280;58659;49.050;8.530;2022-12-18T01:22:54;101001.91;;;-7.99
70389;BMP280;58659;49.050;8.530;2022-12-18T01:25:19;101009.16;;;-8.02
70389;BMP280;58659;49.050;8.530;2022-12-18T01:27:45;101008.16;;;-8.08
70389;BMP280;58659;49.050;8.530;2022-12-18T01:30:10;101006.41;;;-8.08
70389;BMP280;58659;49.050;8.530;2022-12-18T01:32:36;101006.78;;;-8.04
70389;BMP280;58659;49.050;8.530;2022-12-18T01:35:01;100993.16;;;-8.03
70389;BMP280;58659;49.050;8.530;2022-12-18T01:37:26;100981.47;;;-7.97
70389;BMP280;58659;49.050;8.530;2022-12-18T01:39:52;100985.94;;;-7.99
70389;BMP280;58659;49.050;8.530;2022-12-18T01:42:19;100996.09;;;-7.99
70389;BMP280;58659;49.050;8.530;2022-12-18T01:44:59;100993.75;;;-8.01
70389;BMP280;58659;49.050;8.530;2022-12-18T01:47:54;100992.56;;;-8.05
70389;BMP280;58659;49.050;8.530;2022-12-18T01:53:04;101010.09;;;-8.04
70389;BMP280;58659;49.050;8.530;2022-12-18T01:55:35;101015.41;;;-8.05
70389;BMP280;58659;49.050;8.530;2022-12-18T01:58:02;101017.94;;;-8.05
70389;BMP280;58659;49.050;8.530;2022-12-18T02:00:29;100999.59;;;-8.00
70389;BMP280;58659;49.050;8.530;2022-12-18T02:02:54;100989.25;;;-7.99
70389;BMP280;58659;49.050;8.530;2022-12-18T02:05:29;100983.78;;;-8.02
70389;BMP280;58659;49.050;8.530;2022-12-18T02:16:39;100998.41;;;-8.05
70389;BMP280;58659;49.050;8.530;2022-12-18T02:19:39;100996.47;;;-8.02
70389;BMP280;58659;49.050;8.530;2022-12-18T02:27:37;100987.53;;;-7.98
70389;BMP280;58659;49.050;8.530;2022-12-18T02:30:04;100993.78;;;-7.94
70389;BMP280;58659;49.050;8.530;2022-12-18T02:32:34;100999.69;;;-7.87
70389;BMP280;58659;49.050;8.530;2022-12-18T02:35:02;101000.81;;;-7.90
70389;BMP280;58659;49.050;8.530;2022-12-18T02:37:29;101007.88;;;-7.85
70389;BMP280;58659;49.050;8.530;2022-12-18T02:39:56;101010.03;;;-7.82
70389;BMP280;58659;49.050;8.530;2022-12-18T02:42:23;101013.16;;;-7.80
70389;BMP280;58659;49.050;8.530;2022-12-18T02:44:51;101012.38;;;-7.81
70389;BMP280;58659;49.050;8.530;2022-12-18T02:47:22;101002.63;;;-7.84
70389;BMP280;58659;49.050;8.530;2022-12-18T02:52:25;101014.94;;;-7.74
70389;BMP280;58659;49.050;8.530;2022-12-18T02:57:55;101017.69;;;-7.69
70389;BMP280;58659;49.050;8.530;2022-12-18T03:00:24;101014.94;;;-7.74
70389;BMP280;58659;49.050;8.530;2022-12-18T03:07:59;101031.72;;;-7.73
70389;BMP280;58659;49.050;8.530;2022-12-18T03:10:32;101016.94;;;-7.63
70389;BMP280;58659;49.050;8.530;2022-12-18T03:13:03;101007.38;;;-7.61
70389;BMP280;58659;49.050;8.530;2022-12-18T03:15:34;101017.94;;;-7.51
70389;BMP280;58659;49.050;8.530;2022-12-18T03:18:07;101009.16;;;-7.55
70389;BMP280;58659;49.050;8.530;2022-12-18T03:20:37;101005.25;;;-7.51
70389;BMP280;58659;49.050;8.530;2022-12-18T03:23:09;101010.56;;;-7.52
70389;BMP280;58659;49.050;8.530;2022-12-18T03:25:40;101023.03;;;-7.51
70389;BMP280;58659;49.050;8.530;2022-12-18T03:28:09;101022.47;;;-7.53
70389;BMP280;58659;49.050;8.530;2022-12-18T03:30:38;101020.47;;;-7.57
70389;BMP280;58659;49.050;8.530;2022-12-18T03:33:09;101020.47;;;-7.64
70389;BMP280;58659;49.050;8.530;2022-12-18T03:35:40;101024.69;;;-7.78
70389;BMP280;58659;49.050;8.530;2022-12-18T03:38:06;101020.72;;;-7.93
70389;BMP280;58659;49.050;8.530;2022-12-18T03:40:45;101001.59;;;-7.89
70389;BMP280;58659;49.050;8.530;2022-12-18T03:43:20;101005.44;;;-8.07
70389;BMP280;58659;49.050;8.530;2022-12-18T03:46:15;101011.25;;;-8.13
70389;BMP280;58659;49.050;8.530;2022-12-18T03:48:45;101008.53;;;-8.05
70389;BMP280;58659;49.050;8.530;2022-12-18T03:51:24;101012.44;;;-8.09
70389;BMP280;58659;49.050;8.530;2022-12-18T03:54:02;101029.53;;;-8.45
70389;BMP280;58659;49.050;8.530;2022-12-18T03:56:31;101022.22;;;-8.83
70389;BMP280;58659;49.050;8.530;2022-12-18T03:58:58;101032.81;;;-8.94
70389;BMP280;58659;49.050;8.530;2022-12-18T04:01:31;101030.63;;;-9.18
70389;BMP280;58659;49.050;8.530;2022-12-18T04:04:00;101031.84;;;-9.29
70389;BMP280;58659;49.050;8.530;2022-12-18T04:06:26;101035.38;;;-9.59
70389;BMP280;58659;49.050;8.530;2022-12-18T04:08:52;101028.88;;;-9.68
70389;BMP280;58659;49.050;8.530;2022-12-18T04:11:18;101021.25;;;-9.83
70389;BMP280;58659;49.050;8.530;2022-12-18T04:13:43;101011.59;;;-9.94
70389;BMP280;58659;49.050;8.530;2022-12-18T04:16:09;101006.09;;;-10.12
70389;BMP280;58659;49.050;8.530;2022-12-18T04:18:35;101008.88;;;-10.22
70389;BMP280;58659;49.050;8.530;2022-12-18T04:21:00;101013.53;;;-10.34
70389;BMP280;58659;49.050;8.530;2022-12-18T04:23:26;101007.13;;;-10.22
70389;BMP280;58659;49.050;8.530;2022-12-18T04:25:51;100994.94;;;-10.33
70389;BMP280;58659;49.050;8.530;2022-12-18T04:28:16;100980.44;;;-10.39
70389;BMP280;58659;49.050;8.530;2022-12-18T04:30:42;100968.25;;;-10.50
70389;BMP280;58659;49.050;8.530;2022-12-18T04:33:11;100967.22;;;-10.41
70389;BMP280;58659;49.050;8.530;2022-12-18T04:35:37;100972.59;;;-10.44
70389;BMP280;58659;49.050;8.530;2022-12-18T04:38:02;100965.28;;;-10.39
70389;BMP280;58659;49.050;8.530;2022-12-18T04:40:27;100952.84;;;-10.40
70389;BMP280;58659;49.050;8.530;2022-12-18T04:42:53;100966.50;;;-10.35
70389;BMP280;58659;49.050;8.530;2022-12-18T04:45:18;100955.59;;;-10.35
70389;BMP280;58659;49.050;8.530;2022-12-18T04:47:43;100955.78;;;-10.37
70389;BMP280;58659;49.050;8.530;2022-12-18T04:50:09;100959.56;;;-10.33
70389;BMP280;58659;49.050;8.530;2022-12-18T04:52:34;100965.97;;;-10.45
70389;BMP280;58659;49.050;8.530;2022-12-18T04:54:59;100963.34;;;-10.37
70389;BMP280;58659;49.050;8.530;2022-12-18T04:57:25;100963.63;;;-10.32
70389;BMP280;58659;49.050;8.530;2022-12-18T04:59:51;100961.56;;;-10.28
70389;BMP280;58659;49.050;8.530;2022-12-18T05:02:16;100948.06;;;-10.21
70389;BMP280;58659;49.050;8.530;2022-12-18T05:04:41;100946.13;;;-10.19
70389;BMP280;58659;49.050;8.530;2022-12-18T05:07:06;100950.75;;;-10.22
70389;BMP280;58659;49.050;8.530;2022-12-18T05:09:32;100956.59;;;-10.22
70389;BMP280;58659;49.050;8.530;2022-12-18T05:11:57;100964.63;;;-10.33
70389;BMP280;58659;49.050;8.530;2022-12-18T05:14:22;100975.41;;;-10.39
70389;BMP280;58659;49.050;8.530;2022-12-18T05:16:48;100967.09;;;-10.47
70389;BMP280;58659;49.050;8.530;2022-12-18T05:19:13;100973.72;;;-10.46
70389;BMP280;58659;49.050;8.530;2022-12-18T05:21:38;100977.59;;;-10.59
70389;BMP280;58659;49.050;8.530;2022-12-18T05:24:04;100988.28;;;-10.71
70389;BMP280;58659;49.050;8.530;2022-12-18T05:26:29;100997.59;;;-10.72
70389;BMP280;58659;49.050;8.530;2022-12-18T05:28:57;100985.28;;;-10.75
70389;BMP280;58659;49.050;8.530;2022-12-18T05:31:23;100980.09;;;-10.73
70389;BMP280;58659;49.050;8.530;2022-12-18T05:33:51;100980.69;;;-10.71
70389;BMP280;58659;49.050;8.530;2022-12-18T05:36:16;100968.75;;;-10.77
70389;BMP280;58659;49.050;8.530;2022-12-18T05:38:41;100970.97;;;-10.74
70389;BMP280;58659;49.050;8.530;2022-12-18T05:41:07;100969.81;;;-10.72
70389;BMP280;58659;49.050;8.530;2022-12-18T05:43:37;100976.44;;;-10.71
70389;BMP280;58659;49.050;8.530;2022-12-18T05:46:21;100968.91;;;-10.79
70389;BMP280;58659;49.050;8.530;2022-12-18T05:48:46;100963.28;;;-10.81
70389;BMP280;58659;49.050;8.530;2022-12-18T05:51:15;100964.06;;;-10.80
70389;BMP280;58659;49.050;8.530;2022-12-18T05:53:41;100983.06;;;-10.93
70389;BMP280;58659;49.050;8.530;2022-12-18T05:56:10;100992.25;;;-11.00
70389;BMP280;58659;49.050;8.530;2022-12-18T05:58:36;100985.50;;;-11.07
70389;BMP280;58659;49.050;8.530;2022-12-18T06:01:11;100979.63;;;-11.00
70389;BMP280;58659;49.050;8.530;2022-12-18T06:03:37;100967.13;;;-10.93
70389;BMP280;58659;49.050;8.530;2022-12-18T06:06:03;100958.28;;;-10.89
70389;BMP280;58659;49.050;8.530;2022-12-18T06:08:28;100955.19;;;-10.76
70389;BMP280;58659;49.050;8.530;2022-12-18T06:10:53;100954.00;;;-10.66
70389;BMP280;58659;49.050;8.530;2022-12-18T06:13:20;100953.41;;;-10.53
70389;BMP280;58659;49.050;8.530;2022-12-18T06:15:45;100953.84;;;-10.50
70389;BMP280;58659;49.050;8.530;2022-12-18T06:18:10;100938.53;;;-10.48
70389;BMP280;58659;49.050;8.530;2022-12-18T06:20:36;100959.47;;;-10.39
70389;BMP280;58659;49.050;8.530;2022-12-18T06:23:02;100958.13;;;-10.35
70389;BMP280;58659;49.050;8.530;2022-12-18T06:25:28;100954.41;;;-10.25
70389;BMP280;58659;49.050;8.530;2022-12-18T06:27:53;100949.59;;;-10.20
70389;BMP280;58659;49.050;8.530;2022-12-18T06:30:19;100954.28;;;-10.08
70389;BMP280;58659;49.050;8.530;2022-12-18T06:32:44;100977.25;;;-10.03
70389;BMP280;58659;49.050;8.530;2022-12-18T06:35:10;100984.22;;;-10.05
70389;BMP280;58659;49.050;8.530;2022-12-18T06:37:35;100989.91;;;-10.03
70389;BMP280;58659;49.050;8.530;2022-12-18T06:40:00;100998.53;;;-9.98
70389;BMP280;58659;49.050;8.530;2022-12-18T06:42:26;101013.78;;;-9.91
70389;BMP280;58659;49.050;8.530;2022-12-18T06:44:51;101007.69;;;-9.82
70389;BMP280;58659;49.050;8.530;2022-12-18T06:47:17;101007.16;;;-9.77
70389;BMP280;58659;49.050;8.530;2022-12-18T06:49:43;101022.50;;;-9.64
70389;BMP280;58659;49.050;8.530;2022-12-18T06:52:08;101030.78;;;-9.56
70389;BMP280;58659;49.050;8.530;2022-12-18T06:54:34;101047.09;;;-9.43
70389;BMP280;58659;49.050;8.530;2022-12-18T06:56:59;101050.41;;;-9.43
70389;BMP280;58659;49.050;8.530;2022-12-18T06:59:24;101044.47;;;-9.50
70389;BMP280;58659;49.050;8.530;2022-12-18T07:01:49;101042.03;;;-9.43
70389;BMP280;58659;49.050;8.530;2022-12-18T07:04:15;101040.38;;;-9.36
70389;BMP280;58659;49.050;8.530;2022-12-18T07:06:40;101058.66;;;-9.34
70389;BMP280;58659;49.050;8.530;2022-12-18T07:09:05;101060.22;;;-9.33
70389;BMP280;58659;49.050;8.530;2022-12-18T07:11:32;101066.63;;;-9.37
70389;BMP280;58659;49.050;8.530;2022-12-18T07:14:01;101066.25;;;-9.34
70389;BMP280;58659;49.050;8.530;2022-12-18T07:16:26;101046.78;;;-9.19
70389;BMP280;58659;49.050;8.530;2022-12-18T07:18:54;101065.88;;;-9.17
70389;BMP280;58659;49.050;8.530;2022-12-18T07:21:21;101065.16;;;-9.11
70389;BMP280;58659;49.050;8.530;2022-12-18T07:23:46;101074.06;;;-9.00
70389;BMP280;58659;49.050;8.530;2022-12-18T07:26:14;101078.38;;;-8.94
70389;BMP280;58659;49.050;8.530;2022-12-18T07:28:41;101098.94;;;-8.82
70389;BMP280;58659;49.050;8.530;2022-12-18T07:31:09;101096.38;;;-8.89
70389;BMP280;58659;49.050;8.530;2022-12-18T07:33:35;101086.72;;;-9.00
70389;BMP280;58659;49.050;8.530;2022-12-18T07:36:02;101102.16;;;-8.95
70389;BMP280;58659;49.050;8.530;2022-12-18T07:38:28;101102.22;;;-8.88
70389;BMP280;58659;49.050;8.530;2022-12-18T07:40:53;101108.31;;;-8.83
70389;BMP280;58659;49.050;8.530;2022-12-18T07:43:19;101119.75;;;-8.87
70389;BMP280;58659;49.050;8.530;2022-12-18T07:45:44;101115.78;;;-8.96
70389;BMP280;58659;49.050;8.530;2022-12-18T07:48:10;101123.69;;;-8.84
70389;BMP280;58659;49.050;8.530;2022-12-18T07:50:35;101116.41;;;-8.72
70389;BMP280;58659;49.050;8.530;2022-12-18T07:53:01;101123.38;;;-8.60
70389;BMP280;58659;49.050;8.530;2022-12-18T07:55:29;101120.53;;;-8.50
70389;BMP280;58659;49.050;8.530;2022-12-18T07:57:55;101127.34;;;-8.51
70389;BMP280;58659;49.050;8.530;2022-12-18T08:00:20;101126.06;;;-8.40
70389;BMP280;58659;49.050;8.530;2022-12-18T08:02:46;101142.25;;;-8.41
70389;BMP280;58659;49.050;8.530;2022-12-18T08:05:11;101148.63;;;-8.45
70389;BMP280;58659;49.050;8.530;2022-12-18T08:07:37;101162.25;;;-8.46
70389;BMP280;58659;49.050;8.530;2022-12-18T08:10:03;101159.97;;;-8.41
70389;BMP280;58659;49.050;8.530;2022-12-18T08:12:28;101164.81;;;-8.46
70389;BMP280;58659;49.050;8.530;2022-12-18T08:14:53;101166.53;;;-8.47
70389;BMP280;58659;49.050;8.530;2022-12-18T08:17:19;101173.09;;;-8.52
70389;BMP280;58659;49.050;8.530;2022-12-18T08:19:45;101170.84;;;-8.83
70389;BMP280;58659;49.050;8.530;2022-12-18T08:22:10;101168.16;;;-8.96
70389;BMP280;58659;49.050;8.530;2022-12-18T08:24:35;101172.28;;;-8.95
70389;BMP280;58659;49.050;8.530;2022-12-18T08:27:01;101173.75;;;-9.16
70389;BMP280;58659;49.050;8.530;2022-12-18T08:29:26;101186.59;;;-9.17
70389;BMP280;58659;49.050;8.530;2022-12-18T08:31:51;101183.44;;;-9.19
70389;BMP280;58659;49.050;8.530;2022-12-18T08:34:17;101168.59;;;-9.22
70389;BMP280;58659;49.050;8.530;2022-12-18T08:36:42;101181.63;;;-9.25
70389;BMP280;58659;49.050;8.530;2022-12-18T08:39:07;101183.84;;;-9.30
70389;BMP280;58659;49.050;8.530;2022-12-18T08:41:33;101176.34;;;-9.38
70389;BMP280;58659;49.050;8.530;2022-12-18T08:43:58;101180.38;;;-9.44
70389;BMP280;58659;49.050;8.530;2022-12-18T08:46:43;101181.50;;;-9.47
70389;BMP280;58659;49.050;8.530;2022-12-18T08:49:09;101171.91;;;-9.51
70389;BMP280;58659;49.050;8.530;2022-12-18T08:51:35;101169.66;;;-9.46
70389;BMP280;58659;49.050;8.530;2022-12-18T08:54:01;101157.16;;;-9.48
70389;BMP280;58659;49.050;8.530;2022-12-18T08:56:26;101156.56;;;-9.50
70389;BMP280;58659;49.050;8.530;2022-12-18T08:58:53;101147.22;;;-9.49
70389;BMP280;58659;49.050;8.530;2022-12-18T09:01:19;101139.38;;;-9.54
70389;BMP280;58659;49.050;8.530;2022-12-18T09:03:50;101134.66;;;-9.57
70389;BMP280;58659;49.050;8.530;2022-12-18T09:06:17;101131.50;;;-9.59
70389;BMP280;58659;49.050;8.530;2022-12-18T09:08:44;101136.06;;;-9.55
70389;BMP280;58659;49.050;8.530;2022-12-18T09:11:14;101126.09;;;-9.41
70389;BMP280;58659;49.050;8.530;2022-12-18T09:13:40;101122.09;;;-9.36
70389;BMP280;58659;49.050;8.530;2022-12-18T09:16:06;101122.94;;;-9.29
70389;BMP280;58659;49.050;8.530;2022-12-18T09:18:31;101125.41;;;-9.35
70389;BMP280;58659;49.050;8.530;2022-12-18T09:20:57;101133.72;;;-9.27
70389;BMP280;58659;49.050;8.530;2022-12-18T09:23:22;101123.91;;;-9.15
70389;BMP280;58659;49.050;8.530;2022-12-18T09:25:48;101149.22;;;-9.00
70389;BMP280;58659;49.050;8.530;2022-12-18T09:28:17;101153.84;;;-9.04
70389;BMP280;58659;49.050;8.530;2022-12-18T09:30:48;101177.97;;;-9.08
70389;BMP280;58659;49.050;8.530;2022-12-18T09:33:14;101170.53;;;-9.09
70389;BMP280;58659;49.050;8.530;2022-12-18T09:35:41;101175.22;;;-9.06
70389;BMP280;58659;49.050;8.530;2022-12-18T09:38:08;101171.56;;;-9.04
70389;BMP280;58659;49.050;8.530;2022-12-18T09:40:41;101170.59;;;-9.03
70389;BMP280;58659;49.050;8.530;2022-12-18T09:43:22;101182.81;;;-9.06
70389;BMP280;58659;49.050;8.530;2022-12-18T09:45:53;101186.50;;;-9.09
70389;BMP280;58659;49.050;8.530;2022-12-18T09:50:51;101177.97;;;-9.08
70389;BMP280;58659;49.050;8.530;2022-12-18T09:53:26;101166.75;;;-8.99
70389;BMP280;58659;49.050;8.530;2022-12-18T09:55:54;101156.09;;;-8.80
70389;BMP280;58659;49.050;8.530;2022-12-18T09:58:41;101149.09;;;-8.78
70389;BMP280;58659;49.050;8.530;2022-12-18T10:01:14;101142.69;;;-8.52
70389;BMP280;58659;49.050;8.530;2022-12-18T10:03:41;101142.00;;;-8.46
70389;BMP280;58659;49.050;8.530;2022-12-18T10:06:11;101150.63;;;-8.41
70389;BMP280;58659;49.050;8.530;2022-12-18T10:11:38;101165.38;;;-8.29
70389;BMP280;58659;49.050;8.530;2022-12-18T10:20:05;101147.88;;;-7.96
70389;BMP280;58659;49.050;8.530;2022-12-18T10:25:13;101134.34;;;-7.82
70389;BMP280;58659;49.050;8.530;2022-12-18T10:27:40;101144.16;;;-7.66
70389;BMP280;58659;49.050;8.530;2022-12-18T10:30:14;101143.63;;;-7.61
70389;BMP280;58659;49.050;8.530;2022-12-18T10:32:39;101133.63;;;-7.70
70389;BMP280;58659;49.050;8.530;2022-12-18T10:35:12;101141.28;;;-7.56
70389;BMP280;58659;49.050;8.530;2022-12-18T10:43:22;101141.69;;;-7.18
70389;BMP280;58659;49.050;8.530;2022-12-18T10:46:17;101143.28;;;-7.17
70389;BMP280;58659;49.050;8.530;2022-12-18T10:51:28;101147.44;;;-6.90
70389;BMP280;58659;49.050;8.530;2022-12-18T10:54:01;101149.63;;;-6.87
70389;BMP280;58659;49.050;8.530;2022-12-18T10:56:28;101139.66;;;-6.82
70389;BMP280;58659;49.050;8.530;2022-12-18T10:59:02;101134.75;;;-6.83
70389;BMP280;58659;49.050;8.530;2022-12-18T11:01:45;101154.28;;;-6.90
70389;BMP280;58659;49.050;8.530;2022-12-18T11:04:16;101158.22;;;-6.88
70389;BMP280;58659;49.050;8.530;2022-12-18T11:06:59;101145.69;;;-6.89
70389;BMP280;58659;49.050;8.530;2022-12-18T11:09:31;101132.41;;;-6.85
70389;BMP280;58659;49.050;8.530;2022-12-18T11:11:59;101143.00;;;-6.62
70389;BMP280;58659;49.050;8.530;2022-12-18T11:14:46;101166.50;;;-6.53
70389;BMP280;58659;49.050;8.530;2022-12-18T11:17:38;101165.91;;;-6.48
70389;BMP280;58659;49.050;8.530;2022-12-18T11:23:00;101159.28;;;-6.36
70389;BMP280;58659;49.050;8.530;2022-12-18T11:25:26;101157.31;;;-6.41
70389;BMP280;58659;49.050;8.530;2022-12-18T11:33:14;101149.44;;;-5.67
70389;BMP280;58659;49.050;8.530;2022-12-18T11:40:51;101173.31;;;-5.61
70389;BMP280;58659;49.050;8.530;2022-12-18T11:43:28;101165.50;;;-5.79
70389;BMP280;58659;49.050;8.530;2022-12-18T11:45:59;101163.50;;;-5.64
70389;BMP280;58659;49.050;8.530;2022-12-18T11:48:32;101156.22;;;-5.41
70389;BMP280;58659;49.050;8.530;2022-12-18T11:51:00;101154.25;;;-5.39
70389;BMP280;58659;49.050;8.530;2022-12-18T11:53:29;101142.81;;;-5.23
70389;BMP280;58659;49.050;8.530;2022-12-18T12:12:51;101137.88;;;-4.80
70389;BMP280;58659;49.050;8.530;2022-12-18T12:20:27;101109.44;;;-4.59
70389;BMP280;58659;49.050;8.530;2022-12-18T12:23:06;101111.28;;;-4.41
70389;BMP280;58659;49.050;8.530;2022-12-18T12:25:45;101117.63;;;-4.25
70389;BMP280;58659;49.050;8.530;2022-12-18T12:31:31;101124.91;;;-4.29
70389;BMP280;58659;49.050;8.530;2022-12-18T12:39:37;101142.88;;;-3.81
70389;BMP280;58659;49.050;8.530;2022-12-18T12:42:34;101134.44;;;-3.63
70389;BMP280;58659;49.050;8.530;2022-12-18T12:45:41;101162.69;;;-3.40
70389;BMP280;58659;49.050;8.530;2022-12-18T12:48:16;101154.09;;;-3.45
70389;BMP280;58659;49.050;8.530;2022-12-18T12:50:43;101156.22;;;-3.42
70389;BMP280;58659;49.050;8.530;2022-12-18T12:53:25;101146.69;;;-3.35
70389;BMP280;58659;49.050;8.530;2022-12-18T12:55:53;101148.09;;;-3.21
70389;BMP280;58659;49.050;8.530;2022-12-18T12:58:29;101146.16;;;-3.26
70389;BMP280;58659;49.050;8.530;2022-12-18T13:01:15;101139.06;;;-3.24
70389;BMP280;58659;49.050;8.530;2022-12-18T13:06:41;101135.16;;;-3.26
70389;BMP280;58659;49.050;8.530;2022-12-18T13:09:08;101129.19;;;-3.20
70389;BMP280;58659;49.050;8.530;2022-12-18T13:11:46;101104.63;;;-3.21
70389;BMP280;58659;49.050;8.530;2022-12-18T13:14:36;101108.22;;;-3.10
70389;BMP280;58659;49.050;8.530;2022-12-18T13:20:11;101124.44;;;-3.16
70389;BMP280;58659;49.050;8.530;2022-12-18T13:22:48;101106.63;;;-3.23
70389;BMP280;58659;49.050;8.530;2022-12-18T13:25:35;101104.69;;;-3.28
70389;BMP280;58659;49.050;8.530;2022-12-18T13:28:15;101097.75;;;-3.21
70389;BMP280;58659;49.050;8.530;2022-12-18T13:30:45;101090.78;;;-3.02
70389;BMP280;58659;49.050;8.530;2022-12-18T13:45:49;101072.13;;;-2.67
70389;BMP280;58659;49.050;8.530;2022-12-18T13:48:22;101077.69;;;-2.70
70389;BMP280;58659;49.050;8.530;2022-12-18T13:51:15;101081.56;;;-2.91
70389;BMP280;58659;49.050;8.530;2022-12-18T13:53:44;101075.78;;;-2.98
70389;BMP280;58659;49.050;8.530;2022-12-18T13:56:16;101073.19;;;-3.10
70389;BMP280;58659;49.050;8.530;2022-12-18T13:58:42;101065.97;;;-3.13
70389;BMP280;58659;49.050;8.530;2022-12-18T14:01:25;101060.88;;;-3.13
70389;BMP280;58659;49.050;8.530;2022-12-18T14:03:50;101065.53;;;-3.10
70389;BMP280;58659;49.050;8.530;2022-12-18T14:06:16;101068.63;;;-3.20
70389;BMP280;58659;49.050;8.530;2022-12-18T14:08:42;101067.38;;;-3.29
70389;BMP280;58659;49.050;8.530;2022-12-18T14:11:19;101077.44;;;-3.45
70389;BMP280;58659;49.050;8.530;2022-12-18T14:13:46;101085.19;;;-3.52
70389;BMP280;58659;49.050;8.530;2022-12-18T14:16:14;101081.59;;;-3.63
70389;BMP280;58659;49.050;8.530;2022-12-18T14:18:54;101074.00;;;-3.69
70389;BMP280;58659;49.050;8.530;2022-12-18T14:21:29;101069.69;;;-3.69
70389;BMP280;58659;49.050;8.530;2022-12-18T14:24:13;101063.88;;;-3.76
70389;BMP280;58659;49.050;8.530;2022-12-18T14:26:39;101071.41;;;-3.81
70389;BMP280;58659;49.050;8.530;2022-12-18T14:29:34;101055.19;;;-3.75
70389;BMP280;58659;49.050;8.530;2022-12-18T14:32:06;101054.09;;;-3.79
70389;BMP280;58659;49.050;8.530;2022-12-18T14:34:32;101049.53;;;-3.88
70389;BMP280;58659;49.050;8.530;2022-12-18T14:36:57;101047.44;;;-3.98
70389;BMP280;58659;49.050;8.530;2022-12-18T14:39:22;101054.56;;;-4.00
70389;BMP280;58659;49.050;8.530;2022-12-18T14:41:50;101055.94;;;-4.04
70389;BMP280;58659;49.050;8.530;2022-12-18T14:44:16;101046.31;;;-4.02
70389;BMP280;58659;49.050;8.530;2022-12-18T14:46:43;101062.38;;;-4.13
70389;BMP280;58659;49.050;8.530;2022-12-18T14:51:56;101044.72;;;-4.15
70389;BMP280;58659;49.050;8.530;2022-12-18T14:54:23;101046.59;;;-4.28
70389;BMP280;58659;49.050;8.530;2022-12-18T14:56:54;101038.00;;;-4.52
70389;BMP280;58659;49.050;8.530;2022-12-18T14:59:23;101025.16;;;-4.64
70389;BMP280;58659;49.050;8.530;2022-12-18T15:01:59;101009.00;;;-4.58
70389;BMP280;58659;49.050;8.530;2022-12-18T15:04:36;101014.56;;;-4.61
70389;BMP280;58659;49.050;8.530;2022-12-18T15:09:35;101016.59;;;-4.69
70389;BMP280;58659;49.050;8.530;2022-12-18T15:12:01;101015.59;;;-4.93
70389;BMP280;58659;49.050;8.530;2022-12-18T15:16:55;101006.75;;;-5.16
70389;BMP280;58659;49.050;8.530;2022-12-18T15:19:22;101011.84;;;-5.16
70389;BMP280;58659;49.050;8.530;2022-12-18T15:21:49;100988.28;;;-5.36
70389;BMP280;58659;49.050;8.530;2022-12-18T15:24:17;100989.66;;;-5.33
70389;BMP280;58659;49.050;8.530;2022-12-18T15:26:43;100969.31;;;-5.40
70389;BMP280;58659;49.050;8.530;2022-12-18T15:29:19;100968.72;;;-5.42
70389;BMP280;58659;49.050;8.530;2022-12-18T15:32:01;100973.25;;;-5.44
70389;BMP280;58659;49.050;8.530;2022-12-18T15:34:27;100954.13;;;-5.53
70389;BMP280;58659;49.050;8.530;2022-12-18T15:36:53;100943.75;;;-5.58
70389;BMP280;58659;49.050;8.530;2022-12-18T15:39:18;100942.78;;;-5.57
70389;BMP280;58659;49.050;8.530;2022-12-18T15:41:43;100933.41;;;-5.57
70389;BMP280;58659;49.050;8.530;2022-12-18T15:44:29;100923.28;;;-5.70
70389;BMP280;58659;49.050;8.530;2022-12-18T15:46:54;100919.34;;;-5.66
70389;BMP280;58659;49.050;8.530;2022-12-18T15:49:20;100918.16;;;-5.63
70389;BMP280;58659;49.050;8.530;2022-12-18T15:51:51;100923.25;;;-5.63
70389;BMP280;58659;49.050;8.530;2022-12-18T15:54:16;100920.13;;;-5.65
70389;BMP280;58659;49.050;8.530;2022-12-18T15:56:42;100897.78;;;-5.63
70389;BMP280;58659;49.050;8.530;2022-12-18T15:59:26;100895.59;;;-5.60
70389;BMP280;58659;49.050;8.530;2022-12-18T16:01:52;100876.91;;;-5.47
70389;BMP280;58659;49.050;8.530;2022-12-18T16:04:22;100892.56;;;-5.43
70389;BMP280;58659;49.050;8.530;2022-12-18T16:06:48;100870.00;;;-5.40